sensor_id;sensor_type;location;lat;lon;timestamp;pressure;altitude;pressure_sealevel;temperature;humidity
60087;BME280;45960;53.630;55.972;2023-05-10T00:00:13;100620.16;;;10.77;36.24
60087;BME280;45960;53.630;55.972;2023-05-10T00:01:15;100620.16;;;10.77;36.78
60087;BME280;45960;53.630;55.972;2023-05-10T00:02:16;100623.59;;;10.79;36.51
60087;BME280;45960;53.630;55.972;2023-05-10T00:03:17;100613.84;;;10.78;36.21
60087;BME280;45960;53.630;55.972;2023-05-10T00:04:18;100619.13;;;10.80;36.23
60087;BME280;45960;53.630;55.972;2023-05-10T00:05:20;100612.91;;;10.79;36.30
60087;BME280;45960;53.630;55.972;2023-05-10T00:06:21;100612.91;;;10.79;36.52
60087;BME280;45960;53.630;55.972;2023-05-10T00:07:22;100612.06;;;10.79;36.42
60087;BME280;45960;53.630;55.972;2023-05-10T00:08:23;100604.13;;;10.77;36.32
60087;BME280;45960;53.630;55.972;2023-05-10T00:09:24;100611.19;;;10.78;36.51
60087;BME280;45960;53.630;55.972;2023-05-10T00:10:25;100598.78;;;10.77;36.13
60087;BME280;45960;53.630;55.972;2023-05-10T00:11:26;100611.19;;;10.78;36.44
60087;BME280;45960;53.630;55.972;2023-05-10T00:12:27;100613.09;;;10.76;36.32
60087;BME280;45960;53.630;55.972;2023-05-10T00:13:28;100609.66;;;10.74;36.14
60087;BME280;45960;53.630;55.972;2023-05-10T00:14:30;100605.09;;;10.76;36.09
60087;BME280;45960;53.630;55.972;2023-05-10T00:15:31;100601.56;;;10.75;35.95
60087;BME280;45960;53.630;55.972;2023-05-10T00:16:32;100597.16;;;10.74;36.06
60087;BME280;45960;53.630;55.972;2023-05-10T00:17:33;100598.97;;;10.74;35.98
60087;BME280;45960;53.630;55.972;2023-05-10T00:18:34;100591.91;;;10.73;36.10
60087;BME280;45960;53.630;55.972;2023-05-10T00:19:35;100595.53;;;10.72;35.85
60087;BME280;45960;53.630;55.972;2023-05-10T00:20:36;100589.25;;;10.73;36.08
60087;BME280;45960;53.630;55.972;2023-05-10T00:21:37;100592.78;;;10.73;35.92
60087;BME280;45960;53.630;55.972;2023-05-10T00:22:38;100595.53;;;10.72;35.97
60087;BME280;45960;53.630;55.972;2023-05-10T00:23:40;100591.91;;;10.73;35.98
60087;BME280;45960;53.630;55.972;2023-05-10T00:24:41;100590.19;;;10.72;36.01
60087;BME280;45960;53.630;55.972;2023-05-10T00:25:42;100584.84;;;10.72;35.87
60087;BME280;45960;53.630;55.972;2023-05-10T00:26:43;100590.19;;;10.72;35.85
60087;BME280;45960;53.630;55.972;2023-05-10T00:27:44;100585.59;;;10.74;35.60
60087;BME280;45960;53.630;55.972;2023-05-10T00:28:45;100588.28;;;10.74;35.64
60087;BME280;45960;53.630;55.972;2023-05-10T00:29:46;100582.94;;;10.74;35.79
60087;BME280;45960;53.630;55.972;2023-05-10T00:30:47;100574.16;;;10.72;35.51
60087;BME280;45960;53.630;55.972;2023-05-10T00:31:49;100590.00;;;10.75;35.65
60087;BME280;45960;53.630;55.972;2023-05-10T00:32:50;100579.41;;;10.73;35.59
60087;BME280;45960;53.630;55.972;2023-05-10T00:33:52;100578.63;;;10.71;35.69
60087;BME280;45960;53.630;55.972;2023-05-10T00:34:53;100575.09;;;10.71;35.55
60087;BME280;45960;53.630;55.972;2023-05-10T00:35:55;100586.38;;;10.76;35.78
60087;BME280;45960;53.630;55.972;2023-05-10T00:36:56;100575.69;;;10.76;35.44
60087;BME280;45960;53.630;55.972;2023-05-10T00:37:57;100579.09;;;10.78;35.76
60087;BME280;45960;53.630;55.972;2023-05-10T00:38:58;100586.19;;;10.79;35.60
60087;BME280;45960;53.630;55.972;2023-05-10T00:40:00;100579.81;;;10.82;35.63
60087;BME280;45960;53.630;55.972;2023-05-10T00:41:01;100581.44;;;10.84;35.67
60087;BME280;45960;53.630;55.972;2023-05-10T00:42:05;100575.31;;;10.82;35.22
60087;BME280;45960;53.630;55.972;2023-05-10T00:43:07;100572.63;;;10.82;35.37
60087;BME280;45960;53.630;55.972;2023-05-10T00:44:08;100573.41;;;10.84;35.47
60087;BME280;45960;53.630;55.972;2023-05-10T00:45:09;100576.81;;;10.86;35.27
60087;BME280;45960;53.630;55.972;2023-05-10T00:46:13;100573.09;;;10.89;35.44
60087;BME280;45960;53.630;55.972;2023-05-10T00:47:15;100571.28;;;10.89;35.25
60087;BME280;45960;53.630;55.972;2023-05-10T00:48:17;100566.81;;;10.90;35.18
60087;BME280;45960;53.630;55.972;2023-05-10T00:49:18;100572.06;;;10.91;35.36
60087;BME280;45960;53.630;55.972;2023-05-10T00:50:22;100563.84;;;10.94;35.22
60087;BME280;45960;53.630;55.972;2023-05-10T00:51:23;100570.94;;;10.95;35.30
60087;BME280;45960;53.630;55.972;2023-05-10T00:52:24;100567.28;;;10.96;35.40
60087;BME280;45960;53.630;55.972;2023-05-10T00:53:26;100567.28;;;10.96;35.28
60087;BME280;45960;53.630;55.972;2023-05-10T00:54:28;100557.75;;;10.92;35.14
60087;BME280;45960;53.630;55.972;2023-05-10T00:55:30;100564.53;;;10.98;35.26
60087;BME280;45960;53.630;55.972;2023-05-10T00:56:32;100565.38;;;10.98;35.04
60087;BME280;45960;53.630;55.972;2023-05-10T00:57:32;100569.00;;;10.97;34.86
60087;BME280;45960;53.630;55.972;2023-05-10T00:58:34;100565.47;;;10.97;35.11
60087;BME280;45960;53.630;55.972;2023-05-10T00:59:35;100563.84;;;10.94;34.79
60087;BME280;45960;53.630;55.972;2023-05-10T01:00:36;100568.34;;;10.94;34.89
60087;BME280;45960;53.630;55.972;2023-05-10T01:01:39;100561.94;;;10.96;34.90
60087;BME280;45960;53.630;55.972;2023-05-10T01:02:40;100567.28;;;10.96;35.08
60087;BME280;45960;53.630;55.972;2023-05-10T01:03:42;100562.81;;;10.97;35.10
60087;BME280;45960;53.630;55.972;2023-05-10T01:04:43;100558.31;;;10.97;35.07
60087;BME280;45960;53.630;55.972;2023-05-10T01:05:44;100564.53;;;10.98;35.08
60087;BME280;45960;53.630;55.972;2023-05-10T01:06:45;100556.41;;;11.00;34.80
60087;BME280;45960;53.630;55.972;2023-05-10T01:07:47;100563.47;;;11.01;34.91
60087;BME280;45960;53.630;55.972;2023-05-10T01:08:49;100560.78;;;11.01;34.91
60087;BME280;45960;53.630;55.972;2023-05-10T01:09:51;100557.25;;;11.00;34.88
60087;BME280;45960;53.630;55.972;2023-05-10T01:10:52;100561.75;;;11.00;34.80
60087;BME280;45960;53.630;55.972;2023-05-10T01:11:54;100554.50;;;11.02;34.85
60087;BME280;45960;53.630;55.972;2023-05-10T01:12:56;100552.59;;;11.04;35.07
60087;BME280;45960;53.630;55.972;2023-05-10T01:13:57;100554.31;;;11.05;35.13
60087;BME280;45960;53.630;55.972;2023-05-10T01:15:00;100558.50;;;11.09;35.04
60087;BME280;45960;53.630;55.972;2023-05-10T01:16:02;100559.25;;;11.11;35.33
60087;BME280;45960;53.630;55.972;2023-05-10T01:17:05;100557.34;;;11.13;34.99
60087;BME280;45960;53.630;55.972;2023-05-10T01:18:08;100547.72;;;11.10;35.28
60087;BME280;45960;53.630;55.972;2023-05-10T01:19:28;100547.63;;;11.12;35.18
60087;BME280;45960;53.630;55.972;2023-05-10T01:20:37;100548.75;;;11.08;35.08
60087;BME280;45960;53.630;55.972;2023-05-10T01:21:48;100546.19;;;11.06;35.24
60087;BME280;45960;53.630;55.972;2023-05-10T01:24:35;100553.44;;;11.04;35.42
60087;BME280;45960;53.630;55.972;2023-05-10T01:27:58;100549.94;;;11.04;35.15
60087;BME280;45960;53.630;55.972;2023-05-10T01:31:03;100550.66;;;11.06;34.95
60087;BME280;45960;53.630;55.972;2023-05-10T01:33:27;100553.91;;;11.11;34.87
60087;BME280;45960;53.630;55.972;2023-05-10T01:34:52;100547.72;;;11.10;34.49
60087;BME280;45960;53.630;55.972;2023-05-10T01:36:05;100548.16;;;11.17;34.48
60087;BME280;45960;53.630;55.972;2023-05-10T01:37:13;100549.72;;;11.21;34.09
60087;BME280;45960;53.630;55.972;2023-05-10T01:39:25;100546.56;;;11.29;34.25
60087;BME280;45960;53.630;55.972;2023-05-10T01:40:36;100557.91;;;11.32;34.25
60087;BME280;45960;53.630;55.972;2023-05-10T01:43:14;100555.03;;;11.35;34.12
60087;BME280;45960;53.630;55.972;2023-05-10T01:45:33;100550.13;;;11.42;33.70
60087;BME280;45960;53.630;55.972;2023-05-10T01:46:39;100551.56;;;11.48;33.89
60087;BME280;45960;53.630;55.972;2023-05-10T01:49:08;100548.09;;;11.60;33.76
60087;BME280;45960;53.630;55.972;2023-05-10T01:50:18;100548.66;;;11.65;33.91
60087;BME280;45960;53.630;55.972;2023-05-10T01:51:27;100545.66;;;11.70;33.70
60087;BME280;45960;53.630;55.972;2023-05-10T01:52:38;100548.81;;;11.76;33.48
60087;BME280;45960;53.630;55.972;2023-05-10T01:53:42;100546.66;;;11.81;33.52
60087;BME280;45960;53.630;55.972;2023-05-10T01:55:00;100543.66;;;11.88;33.40
60087;BME280;45960;53.630;55.972;2023-05-10T01:56:04;100542.56;;;11.90;33.61
60087;BME280;45960;53.630;55.972;2023-05-10T01:57:08;100544.94;;;11.95;33.56
60087;BME280;45960;53.630;55.972;2023-05-10T01:58:28;100544.72;;;11.98;33.41
60087;BME280;45960;53.630;55.972;2023-05-10T01:59:34;100543.03;;;11.97;33.36
60087;BME280;45960;53.630;55.972;2023-05-10T02:00:44;100541.72;;;11.90;33.56
60087;BME280;45960;53.630;55.972;2023-05-10T02:01:47;100539.78;;;11.92;33.45
60087;BME280;45960;53.630;55.972;2023-05-10T02:02:52;100541.28;;;11.96;33.43
60087;BME280;45960;53.630;55.972;2023-05-10T02:03:55;100543.03;;;11.97;33.34
60087;BME280;45960;53.630;55.972;2023-05-10T02:04:57;100539.38;;;11.98;33.49
60087;BME280;45960;53.630;55.972;2023-05-10T02:05:59;100542.81;;;12.00;33.56
60087;BME280;45960;53.630;55.972;2023-05-10T02:07:00;100536.41;;;12.02;33.16
60087;BME280;45960;53.630;55.972;2023-05-10T02:08:05;100533.59;;;12.04;33.46
60087;BME280;45960;53.630;55.972;2023-05-10T02:09:07;100539.94;;;12.03;33.21
60087;BME280;45960;53.630;55.972;2023-05-10T02:10:10;100532.75;;;12.03;33.44
60087;BME280;45960;53.630;55.972;2023-05-10T02:11:13;100533.59;;;12.04;33.31
60087;BME280;45960;53.630;55.972;2023-05-10T02:12:15;100529.97;;;12.05;33.38
60087;BME280;45960;53.630;55.972;2023-05-10T02:13:18;100528.91;;;12.07;33.20
60087;BME280;45960;53.630;55.972;2023-05-10T02:14:20;100525.28;;;12.08;33.41
60087;BME280;45960;53.630;55.972;2023-05-10T02:15:23;100528.59;;;12.12;33.18
60087;BME280;45960;53.630;55.972;2023-05-10T02:16:27;100521.31;;;12.14;33.16
60087;BME280;45960;53.630;55.972;2023-05-10T02:17:30;100527.44;;;12.16;33.14
60087;BME280;45960;53.630;55.972;2023-05-10T02:18:34;100522.94;;;12.17;32.97
60087;BME280;45960;53.630;55.972;2023-05-10T02:19:39;100522.94;;;12.17;33.25
60087;BME280;45960;53.630;55.972;2023-05-10T02:20:42;100519.28;;;12.18;33.04
60087;BME280;45960;53.630;55.972;2023-05-10T02:21:45;100516.72;;;12.16;32.83
60087;BME280;45960;53.630;55.972;2023-05-10T02:22:49;100514.59;;;12.21;32.84
60087;BME280;45960;53.630;55.972;2023-05-10T02:23:52;100512.84;;;12.20;32.99
60087;BME280;45960;53.630;55.972;2023-05-10T02:24:57;100526.25;;;12.20;32.96
60087;BME280;45960;53.630;55.972;2023-05-10T02:26:00;100502.56;;;12.14;32.81
60087;BME280;45960;53.630;55.972;2023-05-10T02:27:03;100512.84;;;12.20;32.70
60087;BME280;45960;53.630;55.972;2023-05-10T02:28:06;100517.78;;;12.26;32.59
60087;BME280;45960;53.630;55.972;2023-05-10T02:29:11;100506.13;;;12.27;32.56
60087;BME280;45960;53.630;55.972;2023-05-10T02:30:14;100515.09;;;12.26;32.61
60087;BME280;45960;53.630;55.972;2023-05-10T02:31:16;100513.94;;;12.30;32.59
60087;BME280;45960;53.630;55.972;2023-05-10T02:32:19;100513.94;;;12.30;32.71
60087;BME280;45960;53.630;55.972;2023-05-10T02:33:22;100503.03;;;12.34;32.67
60087;BME280;45960;53.630;55.972;2023-05-10T02:34:27;100518.25;;;12.46;32.62
60087;BME280;45960;53.630;55.972;2023-05-10T02:35:28;100504.75;;;12.47;32.34
60087;BME280;45960;53.630;55.972;2023-05-10T02:36:30;100510.53;;;12.54;32.32
60087;BME280;45960;53.630;55.972;2023-05-10T02:37:33;100512.03;;;12.58;32.50
60087;BME280;45960;53.630;55.972;2023-05-10T02:38:36;100519.88;;;12.61;32.46
60087;BME280;45960;53.630;55.972;2023-05-10T02:39:38;100511.81;;;12.61;32.35
60087;BME280;45960;53.630;55.972;2023-05-10T02:40:44;100517.19;;;12.61;32.18
60087;BME280;45960;53.630;55.972;2023-05-10T02:41:48;100511.59;;;12.64;32.26
60087;BME280;45960;53.630;55.972;2023-05-10T02:42:52;100508.72;;;12.67;32.12
60087;BME280;45960;53.630;55.972;2023-05-10T02:43:57;100506.88;;;12.68;32.29
60087;BME280;45960;53.630;55.972;2023-05-10T02:45:01;100514.63;;;12.72;32.12
60087;BME280;45960;53.630;55.972;2023-05-10T02:46:05;100509.88;;;12.76;32.17
60087;BME280;45960;53.630;55.972;2023-05-10T02:47:06;100508.06;;;12.76;32.15
60087;BME280;45960;53.630;55.972;2023-05-10T02:48:07;100514.19;;;12.79;32.32
60087;BME280;45960;53.630;55.972;2023-05-10T02:49:09;100519.31;;;12.82;32.18
60087;BME280;45960;53.630;55.972;2023-05-10T02:50:10;100513.94;;;12.82;32.06
60087;BME280;45960;53.630;55.972;2023-05-10T02:51:13;100508.38;;;12.85;32.13
60087;BME280;45960;53.630;55.972;2023-05-10T02:52:22;100512.78;;;12.86;32.02
60087;BME280;45960;53.630;55.972;2023-05-10T02:53:31;100520.84;;;12.86;32.06
60087;BME280;45960;53.630;55.972;2023-05-10T02:54:40;100512.66;;;12.87;32.12
60087;BME280;45960;53.630;55.972;2023-05-10T02:55:45;100515.25;;;12.89;31.92
60087;BME280;45960;53.630;55.972;2023-05-10T02:56:56;100512.34;;;12.92;31.98
60087;BME280;45960;53.630;55.972;2023-05-10T02:58:00;100513.81;;;12.96;31.99
60087;BME280;45960;53.630;55.972;2023-05-10T02:59:01;100507.50;;;12.97;31.76
60087;BME280;45960;53.630;55.972;2023-05-10T03:00:03;100516.19;;;13.01;31.46
60087;BME280;45960;53.630;55.972;2023-05-10T03:01:05;100511.81;;;12.99;31.46
60087;BME280;45960;53.630;55.972;2023-05-10T03:02:08;100507.50;;;12.97;31.52
60087;BME280;45960;53.630;55.972;2023-05-10T03:03:11;100503.00;;;12.97;31.33
60087;BME280;45960;53.630;55.972;2023-05-10T03:04:12;100507.50;;;12.97;31.15
60087;BME280;45960;53.630;55.972;2023-05-10T03:05:13;100503.63;;;13.01;31.50
60087;BME280;45960;53.630;55.972;2023-05-10T03:06:15;100503.84;;;12.98;31.15
60087;BME280;45960;53.630;55.972;2023-05-10T03:07:17;100481.34;;;12.88;31.17
60087;BME280;45960;53.630;55.972;2023-05-10T03:08:23;100505.34;;;13.02;31.12
60087;BME280;45960;53.630;55.972;2023-05-10T03:09:24;100500.72;;;13.04;31.08
60087;BME280;45960;53.630;55.972;2023-05-10T03:10:27;100506.41;;;13.12;31.11
60087;BME280;45960;53.630;55.972;2023-05-10T03:11:47;100502.31;;;13.19;30.96
60087;BME280;45960;53.630;55.972;2023-05-10T03:13:29;100500.25;;;13.23;31.25
60087;BME280;45960;53.630;55.972;2023-05-10T03:14:53;100503.28;;;13.31;31.03
60087;BME280;45960;53.630;55.972;2023-05-10T03:16:00;100504.75;;;13.35;30.72
60087;BME280;45960;53.630;55.972;2023-05-10T03:17:14;100498.81;;;13.43;30.64
60087;BME280;45960;53.630;55.972;2023-05-10T03:18:26;100505.47;;;13.50;30.43
60087;BME280;45960;53.630;55.972;2023-05-10T03:19:56;100505.00;;;13.56;30.23
60087;BME280;45960;53.630;55.972;2023-05-10T03:21:03;100507.34;;;13.61;30.35
60087;BME280;45960;53.630;55.972;2023-05-10T03:22:10;100489.72;;;13.70;30.33
60087;BME280;45960;53.630;55.972;2023-05-10T03:23:35;100490.72;;;13.80;29.84
60087;BME280;45960;53.630;55.972;2023-05-10T03:24:39;100487.56;;;13.86;29.98
60087;BME280;45960;53.630;55.972;2023-05-10T03:25:43;100489.56;;;13.95;29.98
60087;BME280;45960;53.630;55.972;2023-05-10T03:26:46;100488.25;;;14.01;29.91
60087;BME280;45960;53.630;55.972;2023-05-10T03:27:51;100494.59;;;14.11;29.67
60087;BME280;45960;53.630;55.972;2023-05-10T03:28:54;100495.00;;;14.18;29.43
60087;BME280;45960;53.630;55.972;2023-05-10T03:29:55;100493.44;;;14.26;29.64
60087;BME280;45960;53.630;55.972;2023-05-10T03:30:57;100495.53;;;14.34;29.41
60087;BME280;45960;53.630;55.972;2023-05-10T03:32:00;100482.47;;;14.41;29.35
60087;BME280;45960;53.630;55.972;2023-05-10T03:33:07;100493.03;;;14.55;29.48
60087;BME280;45960;53.630;55.972;2023-05-10T03:34:11;100492.44;;;14.63;29.34
60087;BME280;45960;53.630;55.972;2023-05-10T03:35:13;100482.41;;;14.65;28.94
60087;BME280;45960;53.630;55.972;2023-05-10T03:36:15;100495.97;;;14.74;29.10
60087;BME280;45960;53.630;55.972;2023-05-10T03:37:16;100497.56;;;14.77;29.02
60087;BME280;45960;53.630;55.972;2023-05-10T03:38:17;100483.38;;;14.75;28.81
60087;BME280;45960;53.630;55.972;2023-05-10T03:39:18;100486.31;;;14.72;28.82
60087;BME280;45960;53.630;55.972;2023-05-10T03:40:27;100489.00;;;14.72;29.02
60087;BME280;45960;53.630;55.972;2023-05-10T03:41:33;100478.84;;;14.64;28.95
60087;BME280;45960;53.630;55.972;2023-05-10T03:42:34;100488.16;;;14.71;29.10
60087;BME280;45960;53.630;55.972;2023-05-10T03:43:35;100480.44;;;14.67;28.98
60087;BME280;45960;53.630;55.972;2023-05-10T03:44:39;100489.00;;;14.72;29.14
60087;BME280;45960;53.630;55.972;2023-05-10T03:45:40;100489.00;;;14.72;29.11
60087;BME280;45960;53.630;55.972;2023-05-10T03:46:41;100489.84;;;14.72;28.99
60087;BME280;45960;53.630;55.972;2023-05-10T03:47:42;100492.69;;;14.71;28.91
60087;BME280;45960;53.630;55.972;2023-05-10T03:48:44;100483.63;;;14.72;28.97
60087;BME280;45960;53.630;55.972;2023-05-10T03:49:45;100488.75;;;14.75;29.26
60087;BME280;45960;53.630;55.972;2023-05-10T03:50:47;100486.56;;;14.80;28.96
60087;BME280;45960;53.630;55.972;2023-05-10T03:51:49;100485.31;;;14.84;29.05
60087;BME280;45960;53.630;55.972;2023-05-10T03:52:51;100495.63;;;14.90;28.87
60087;BME280;45960;53.630;55.972;2023-05-10T03:53:52;100493.28;;;14.97;28.86
60087;BME280;45960;53.630;55.972;2023-05-10T03:54:53;100487.41;;;15.03;28.90
60087;BME280;45960;53.630;55.972;2023-05-10T03:55:54;100488.63;;;15.10;28.64
60087;BME280;45960;53.630;55.972;2023-05-10T03:56:55;100494.25;;;15.18;28.46
60087;BME280;45960;53.630;55.972;2023-05-10T03:57:56;100496.31;;;15.26;28.48
60087;BME280;45960;53.630;55.972;2023-05-10T03:58:58;100487.50;;;15.35;28.29
60087;BME280;45960;53.630;55.972;2023-05-10T03:59:59;100498.50;;;15.43;28.08
60087;BME280;45960;53.630;55.972;2023-05-10T04:01:01;100491.34;;;15.54;28.26
60087;BME280;45960;53.630;55.972;2023-05-10T04:02:02;100486.91;;;15.64;27.91
60087;BME280;45960;53.630;55.972;2023-05-10T04:03:04;100489.03;;;15.72;27.82
60087;BME280;45960;53.630;55.972;2023-05-10T04:04:05;100487.13;;;15.83;27.94
60087;BME280;45960;53.630;55.972;2023-05-10T04:05:07;100487.81;;;15.97;27.88
60087;BME280;45960;53.630;55.972;2023-05-10T04:06:08;100486.75;;;16.09;27.83
60087;BME280;45960;53.630;55.972;2023-05-10T04:07:12;100483.00;;;16.21;27.31
60087;BME280;45960;53.630;55.972;2023-05-10T04:08:14;100484.66;;;16.33;27.19
60087;BME280;45960;53.630;55.972;2023-05-10T04:09:18;100488.13;;;16.45;27.04
60087;BME280;45960;53.630;55.972;2023-05-10T04:10:19;100492.44;;;16.58;26.93
60087;BME280;45960;53.630;55.972;2023-05-10T04:11:20;100497.19;;;16.65;27.04
60087;BME280;45960;53.630;55.972;2023-05-10T04:12:22;100499.34;;;16.71;26.99
60087;BME280;45960;53.630;55.972;2023-05-10T04:13:23;100498.84;;;16.77;27.03
60087;BME280;45960;53.630;55.972;2023-05-10T04:14:24;100495.63;;;16.84;26.60
60087;BME280;45960;53.630;55.972;2023-05-10T04:15:26;100500.31;;;16.91;26.57
60087;BME280;45960;53.630;55.972;2023-05-10T04:16:27;100502.34;;;16.99;26.70
60087;BME280;45960;53.630;55.972;2023-05-10T04:17:28;100495.81;;;17.02;26.65
60087;BME280;45960;53.630;55.972;2023-05-10T04:18:29;100500.38;;;17.01;26.41
60087;BME280;45960;53.630;55.972;2023-05-10T04:19:31;100497.69;;;17.01;26.51
60087;BME280;45960;53.630;55.972;2023-05-10T04:20:32;100496.41;;;17.05;26.25
60087;BME280;45960;53.630;55.972;2023-05-10T04:21:34;100498.97;;;17.07;26.08
60087;BME280;45960;53.630;55.972;2023-05-10T04:22:35;100496.41;;;17.05;26.00
60087;BME280;45960;53.630;55.972;2023-05-10T04:23:36;100494.97;;;17.01;25.79
60087;BME280;45960;53.630;55.972;2023-05-10T04:24:38;100493.53;;;16.97;25.92
60087;BME280;45960;53.630;55.972;2023-05-10T04:25:39;100493.81;;;16.94;25.92
60087;BME280;45960;53.630;55.972;2023-05-10T04:26:40;100493.53;;;16.97;25.87
60087;BME280;45960;53.630;55.972;2023-05-10T04:27:41;100491.56;;;16.99;25.96
60087;BME280;45960;53.630;55.972;2023-05-10T04:28:42;100494.97;;;17.01;26.08
60087;BME280;45960;53.630;55.972;2023-05-10T04:29:43;100495.69;;;17.03;25.94
60087;BME280;45960;53.630;55.972;2023-05-10T04:30:45;100494.44;;;17.07;26.04
60087;BME280;45960;53.630;55.972;2023-05-10T04:31:46;100499.28;;;17.13;26.13
60087;BME280;45960;53.630;55.972;2023-05-10T04:32:47;100502.41;;;17.18;26.13
60087;BME280;45960;53.630;55.972;2023-05-10T04:33:48;100497.06;;;17.28;26.14
60087;BME280;45960;53.630;55.972;2023-05-10T04:34:50;100494.38;;;17.28;25.31
60087;BME280;45960;53.630;55.972;2023-05-10T04:35:53;100495.91;;;17.31;25.30
60087;BME280;45960;53.630;55.972;2023-05-10T04:36:54;100478.84;;;17.20;25.05
60087;BME280;45960;53.630;55.972;2023-05-10T04:37:55;100490.53;;;17.40;25.10
60087;BME280;45960;53.630;55.972;2023-05-10T04:38:56;100498.94;;;17.47;25.27
60087;BME280;45960;53.630;55.972;2023-05-10T04:39:57;100498.13;;;17.56;25.43
60087;BME280;45960;53.630;55.972;2023-05-10T04:41:07;100504.38;;;17.66;25.30
60087;BME280;45960;53.630;55.972;2023-05-10T04:42:09;100496.13;;;17.78;25.15
60087;BME280;45960;53.630;55.972;2023-05-10T04:43:10;100499.16;;;17.94;24.91
60087;BME280;45960;53.630;55.972;2023-05-10T04:44:11;100493.31;;;18.08;24.88
60087;BME280;45960;53.630;55.972;2023-05-10T04:45:13;100496.59;;;18.22;24.22
60087;BME280;45960;53.630;55.972;2023-05-10T04:46:15;100487.75;;;18.29;24.21
60087;BME280;45960;53.630;55.972;2023-05-10T04:47:16;100489.16;;;18.43;23.98
60087;BME280;45960;53.630;55.972;2023-05-10T04:48:17;100488.88;;;18.46;23.95
60087;BME280;45960;53.630;55.972;2023-05-10T04:49:18;100484.84;;;18.50;24.04
60087;BME280;45960;53.630;55.972;2023-05-10T04:50:19;100482.28;;;18.59;23.75
60087;BME280;45960;53.630;55.972;2023-05-10T04:51:20;100486.53;;;18.71;23.50
60087;BME280;45960;53.630;55.972;2023-05-10T04:52:22;100483.06;;;18.88;23.43
60087;BME280;45960;53.630;55.972;2023-05-10T04:53:23;100481.84;;;19.00;23.20
60087;BME280;45960;53.630;55.972;2023-05-10T04:54:24;100485.78;;;19.16;22.98
60087;BME280;45960;53.630;55.972;2023-05-10T04:55:25;100476.31;;;19.30;22.86
60087;BME280;45960;53.630;55.972;2023-05-10T04:56:27;100480.81;;;19.39;22.57
60087;BME280;45960;53.630;55.972;2023-05-10T04:57:28;100474.78;;;19.45;22.48
60087;BME280;45960;53.630;55.972;2023-05-10T04:58:29;100472.47;;;19.50;22.49
60087;BME280;45960;53.630;55.972;2023-05-10T04:59:30;100468.91;;;19.50;22.55
60087;BME280;45960;53.630;55.972;2023-05-10T05:00:32;100472.91;;;19.45;22.53
60087;BME280;45960;53.630;55.972;2023-05-10T05:01:33;100467.78;;;19.42;22.44
60087;BME280;45960;53.630;55.972;2023-05-10T05:02:35;100470.50;;;19.42;22.53
60087;BME280;45960;53.630;55.972;2023-05-10T05:03:36;100458.50;;;19.45;22.54
60087;BME280;45960;53.630;55.972;2023-05-10T05:04:38;100460.19;;;19.46;22.52
60087;BME280;45960;53.630;55.972;2023-05-10T05:05:39;100469.00;;;19.58;22.52
60087;BME280;45960;53.630;55.972;2023-05-10T05:06:40;100479.22;;;19.64;22.26
60087;BME280;45960;53.630;55.972;2023-05-10T05:07:41;100474.59;;;19.74;22.23
60087;BME280;45960;53.630;55.972;2023-05-10T05:08:42;100473.66;;;19.83;22.31
60087;BME280;45960;53.630;55.972;2023-05-10T05:09:43;100476.78;;;19.88;22.21
60087;BME280;45960;53.630;55.972;2023-05-10T05:10:45;100470.41;;;19.98;22.14
60087;BME280;45960;53.630;55.972;2023-05-10T05:11:46;100476.28;;;20.11;22.11
60087;BME280;45960;53.630;55.972;2023-05-10T05:12:47;100466.50;;;20.18;21.94
60087;BME280;45960;53.630;55.972;2023-05-10T05:13:48;100470.28;;;20.25;22.28
60087;BME280;45960;53.630;55.972;2023-05-10T05:14:49;100470.97;;;20.27;21.96
60087;BME280;45960;53.630;55.972;2023-05-10T05:15:50;100467.25;;;20.28;22.27
60087;BME280;45960;53.630;55.972;2023-05-10T05:16:52;100476.25;;;20.29;22.24
60087;BME280;45960;53.630;55.972;2023-05-10T05:17:53;100474.69;;;20.26;21.97
60087;BME280;45960;53.630;55.972;2023-05-10T05:18:54;100481.16;;;20.25;22.12
60087;BME280;45960;53.630;55.972;2023-05-10T05:19:56;100479.34;;;20.16;21.88
60087;BME280;45960;53.630;55.972;2023-05-10T05:20:57;100480.09;;;20.00;21.79
60087;BME280;45960;53.630;55.972;2023-05-10T05:21:58;100483.34;;;19.86;21.79
60087;BME280;45960;53.630;55.972;2023-05-10T05:23:00;100488.63;;;19.70;21.67
60087;BME280;45960;53.630;55.972;2023-05-10T05:24:01;100486.72;;;19.52;21.87
60087;BME280;45960;53.630;55.972;2023-05-10T05:25:03;100492.78;;;19.36;21.86
60087;BME280;45960;53.630;55.972;2023-05-10T05:26:04;100491.75;;;19.19;22.11
60087;BME280;45960;53.630;55.972;2023-05-10T05:27:05;100491.84;;;19.00;22.15
60087;BME280;45960;53.630;55.972;2023-05-10T05:28:06;100493.47;;;18.83;22.14
60087;BME280;45960;53.630;55.972;2023-05-10T05:29:07;100493.63;;;18.72;22.34
60087;BME280;45960;53.630;55.972;2023-05-10T05:30:09;100494.53;;;18.63;22.46
60087;BME280;45960;53.630;55.972;2023-05-10T05:31:10;100499.66;;;18.56;22.52
60087;BME280;45960;53.630;55.972;2023-05-10T05:32:11;100492.25;;;18.48;22.72
60087;BME280;45960;53.630;55.972;2023-05-10T05:33:15;100491.72;;;18.35;22.53
60087;BME280;45960;53.630;55.972;2023-05-10T05:34:16;100498.16;;;18.24;22.80
60087;BME280;45960;53.630;55.972;2023-05-10T05:35:17;100498.88;;;18.17;22.97
60087;BME280;45960;53.630;55.972;2023-05-10T05:36:18;100499.56;;;18.09;23.21
60087;BME280;45960;53.630;55.972;2023-05-10T05:37:20;100486.66;;;17.93;23.12
60087;BME280;45960;53.630;55.972;2023-05-10T05:38:25;100500.16;;;17.93;23.35